Terminal Aerodrome Forecast
Issued by NWS Jacksonville, FL

Home | Current Version | Previous Version | Text Only | Print | Product List | Glossary On
Versions: 1 2 3 4 5 6 7 8 9 10 11 12 13 14 15 16 17 18 19
909
FTUS42 KJAX 221946 AAA
TAFSSI
TAF AMD
KSSI 221946Z 2220/2318 06012KT 6SM -SHRA VCTS SCT035CB BKN060
      OVC150
      TEMPO 2220/2222 2SM SHRA BKN025 OVC050
     FM222300 05010KT 5SM -SHRA BR BKN015 OVC030
     FM231200 04015G22KT P6SM VCSH OVC020=

USA.gov is the U.S. government's official web portal to all federal, state and local government web resources and services.